createdAt,value
2022-09-01T00:00:11.149Z,52.30
2022-09-01T00:02:38.811Z,51.80
2022-09-01T00:05:07.388Z,52.00
2022-09-01T00:07:35.301Z,51.90
2022-09-01T00:10:06.868Z,52.40
2022-09-01T00:12:35.264Z,52.00
2022-09-01T00:15:02.694Z,52.70
2022-09-01T00:17:31.302Z,51.40
2022-09-01T00:19:58.763Z,52.40
2022-09-01T00:22:26.712Z,51.90
2022-09-01T00:24:54.070Z,51.90
2022-09-01T00:27:22.695Z,52.60
2022-09-01T00:29:59.960Z,52.20
2022-09-01T00:32:28.479Z,52.30
2022-09-01T00:34:56.978Z,52.70
2022-09-01T00:37:24.428Z,52.20
2022-09-01T00:39:51.868Z,52.80
2022-09-01T00:42:19.336Z,52.70
2022-09-01T00:44:46.849Z,52.30
2022-09-01T00:47:14.858Z,52.70
2022-09-01T00:49:46.755Z,53.00
2022-09-01T00:52:19.003Z,52.60
2022-09-01T00:54:52.879Z,52.60
2022-09-01T00:57:20.819Z,52.70
2022-09-01T00:59:56.468Z,53.20
2022-09-01T01:02:24.353Z,52.70
2022-09-01T01:04:52.719Z,53.10
2022-09-01T01:07:23.084Z,52.80
2022-09-01T01:09:51.310Z,53.20
2022-09-01T01:12:19.894Z,53.00
2022-09-01T01:14:50.326Z,53.10
2022-09-01T01:17:20.944Z,53.60
2022-09-01T01:20:13.071Z,53.20
2022-09-01T01:23:10.105Z,53.60
2022-09-01T01:26:06.083Z,53.40
2022-09-01T01:28:37.075Z,53.30
2022-09-01T01:31:11.947Z,54.00
2022-09-01T01:33:47.169Z,53.90
2022-09-01T01:36:26.978Z,53.80
2022-09-01T01:38:59.395Z,53.80
2022-09-01T01:41:29.950Z,54.10
2022-09-01T01:43:59.777Z,54.10
2022-09-01T01:46:30.173Z,54.40
2022-09-01T01:48:58.551Z,54.70
2022-09-01T01:51:27.466Z,54.30
2022-09-01T01:53:56.979Z,54.80
2022-09-01T01:56:25.650Z,54.70
2022-09-01T01:58:56.353Z,54.50
2022-09-01T02:01:28.678Z,55.30
2022-09-01T02:04:00.255Z,55.20
2022-09-01T02:06:29.359Z,55.20
2022-09-01T02:08:59.134Z,55.10
2022-09-01T02:11:27.463Z,55.20
2022-09-01T02:13:57.150Z,55.40
2022-09-01T02:16:27.725Z,55.70
2022-09-01T02:18:56.570Z,55.50
2022-09-01T02:21:27.439Z,55.60
2022-09-01T02:24:02.199Z,55.80
2022-09-01T02:26:45.976Z,55.70
2022-09-01T02:29:21.006Z,56.10
2022-09-01T02:31:51.989Z,57.10
2022-09-01T02:34:21.162Z,56.40
2022-09-01T02:36:52.283Z,56.00
2022-09-01T02:39:30.271Z,56.10
2022-09-01T02:42:01.244Z,56.70
2022-09-01T02:44:30.951Z,56.20
2022-09-01T02:47:02.044Z,57.00
2022-09-01T02:49:30.096Z,55.90
2022-09-01T02:52:01.410Z,56.50
2022-09-01T02:54:32.584Z,56.80
2022-09-01T02:57:00.765Z,57.20
2022-09-01T02:59:30.340Z,57.10
2022-09-01T03:02:02.507Z,57.60
2022-09-01T03:04:33.879Z,57.20
2022-09-01T03:07:06.159Z,57.40
2022-09-01T03:09:35.064Z,57.30
2022-09-01T03:12:03.119Z,57.70
2022-09-01T03:14:31.971Z,57.50
2022-09-01T03:17:00.648Z,57.70
2022-09-01T03:19:32.244Z,58.10
2022-09-01T03:22:00.135Z,57.70
2022-09-01T03:24:32.166Z,58.00
2022-09-01T03:26:59.833Z,58.00
2022-09-01T03:29:27.829Z,58.40
2022-09-01T03:31:55.562Z,57.80
2022-09-01T03:34:23.569Z,57.90
2022-09-01T03:36:54.379Z,58.50
2022-09-01T03:39:27.368Z,58.30
2022-09-01T03:41:56.690Z,58.70
2022-09-01T03:44:24.692Z,59.10
2022-09-01T03:46:52.815Z,58.70
2022-09-01T03:49:24.941Z,58.70
2022-09-01T03:51:53.863Z,59.20
2022-09-01T03:54:24.822Z,59.00
2022-09-01T03:56:52.578Z,59.10
2022-09-01T03:59:22.518Z,59.30
2022-09-01T04:01:50.243Z,59.10
2022-09-01T04:04:17.927Z,58.60
2022-09-01T04:06:46.953Z,59.50
2022-09-01T04:09:15.325Z,59.70
2022-09-01T04:11:46.784Z,59.80
2022-09-01T04:14:15.871Z,59.50
2022-09-01T04:17:03.457Z,60.00
2022-09-01T04:22:17.534Z,60.40
2022-09-01T04:24:45.833Z,60.10
2022-09-01T04:27:15.012Z,61.00
2022-09-01T04:29:45.610Z,61.10
2022-09-01T04:32:13.451Z,61.00
2022-09-01T04:34:44.522Z,61.20
2022-09-01T04:37:21.061Z,60.80
2022-09-01T04:39:56.504Z,60.50
2022-09-01T04:42:29.195Z,61.10
2022-09-01T04:44:57.803Z,61.20
2022-09-01T04:47:36.521Z,60.80
2022-09-01T04:50:14.836Z,60.90
2022-09-01T04:53:04.484Z,61.10
2022-09-01T04:55:43.457Z,61.30
2022-09-01T04:58:17.346Z,61.80
2022-09-01T05:00:48.277Z,61.60
2022-09-01T05:03:21.370Z,61.70
2022-09-01T05:06:01.156Z,62.10
2022-09-01T05:08:29.141Z,61.90
2022-09-01T05:11:07.363Z,61.90
2022-09-01T05:13:39.648Z,62.10
2022-09-01T05:16:13.088Z,62.20
2022-09-01T05:18:47.427Z,63.00
2022-09-01T05:21:17.904Z,62.50
2022-09-01T05:23:47.031Z,62.80
2022-09-01T05:26:22.757Z,62.80
2022-09-01T05:28:56.102Z,63.20
2022-09-01T05:31:28.031Z,63.00
2022-09-01T05:33:58.008Z,63.10
2022-09-01T05:36:26.745Z,63.10
2022-09-01T05:38:57.428Z,63.60
2022-09-01T05:41:25.209Z,63.30
2022-09-01T05:43:59.343Z,63.20
2022-09-01T05:46:28.215Z,63.50
2022-09-01T05:48:57.471Z,63.40
2022-09-01T05:51:43.985Z,63.10
2022-09-01T05:54:14.268Z,63.60
2022-09-01T05:56:44.067Z,63.10
2022-09-01T05:59:23.033Z,63.50
2022-09-01T06:01:53.208Z,63.00
2022-09-01T06:04:22.756Z,62.80
2022-09-01T06:07:10.320Z,62.70
2022-09-01T06:09:45.721Z,62.80
2022-09-01T06:12:23.298Z,63.30
2022-09-01T06:14:53.533Z,62.60
2022-09-01T06:17:24.899Z,62.50
2022-09-01T06:19:56.255Z,62.60
2022-09-01T06:22:25.809Z,62.20
2022-09-01T06:24:58.051Z,62.30
2022-09-01T06:27:32.156Z,62.10
2022-09-01T06:29:59.717Z,61.50
2022-09-01T06:33:01.884Z,61.10
2022-09-01T06:39:20.318Z,60.50
2022-09-01T06:42:05.979Z,60.00
2022-09-01T06:45:01.946Z,59.50
2022-09-01T06:47:30.209Z,60.00
2022-09-01T06:49:59.431Z,58.90
2022-09-01T06:56:05.752Z,59.20
2022-09-01T06:59:14.522Z,59.00
2022-09-01T07:02:05.872Z,58.50
2022-09-01T07:04:51.936Z,58.10
2022-09-01T07:14:27.149Z,58.20
2022-09-01T07:17:30.681Z,56.80
2022-09-01T07:20:28.760Z,56.80
2022-09-01T07:24:08.050Z,56.10
2022-09-01T07:26:36.105Z,56.60
2022-09-01T07:29:12.196Z,56.50
2022-09-01T07:39:48.710Z,55.90
2022-09-01T07:48:03.493Z,54.40
2022-09-01T07:51:34.194Z,53.70
2022-09-01T07:53:31.502Z,54.40
2022-09-01T07:56:09.572Z,53.50
2022-09-01T07:59:14.569Z,53.60
2022-09-01T08:02:00.796Z,54.00
2022-09-01T08:04:29.604Z,53.20
2022-09-01T08:07:08.834Z,53.40
2022-09-01T08:09:43.770Z,52.90
2022-09-01T08:12:13.307Z,52.90
2022-09-01T08:14:46.869Z,52.40
2022-09-01T08:17:18.300Z,51.70
2022-09-01T08:20:09.630Z,51.20
2022-09-01T08:23:08.371Z,51.20
2022-09-01T08:25:40.761Z,50.00
2022-09-01T08:28:09.823Z,50.30
2022-09-01T08:30:49.156Z,50.10
2022-09-01T08:33:20.851Z,49.00
2022-09-01T08:35:49.796Z,48.60
2022-09-01T08:38:18.992Z,48.10
2022-09-01T08:40:57.662Z,48.10
2022-09-01T08:44:08.155Z,48.10
2022-09-01T08:46:41.471Z,48.20
2022-09-01T08:49:30.275Z,47.80
2022-09-01T08:52:26.883Z,48.10
2022-09-01T08:55:03.462Z,47.50
2022-09-01T08:57:39.707Z,45.90
2022-09-01T09:00:24.251Z,45.90
2022-09-01T09:03:14.058Z,46.70
2022-09-01T09:05:59.714Z,45.90
2022-09-01T09:08:43.820Z,45.80
2022-09-01T09:11:32.135Z,46.20
2022-09-01T09:14:06.421Z,45.40
2022-09-01T09:16:45.253Z,45.00
2022-09-01T09:19:39.490Z,44.20
2022-09-01T09:22:12.132Z,44.10
2022-09-01T09:24:56.363Z,43.30
2022-09-01T09:27:26.898Z,44.20
2022-09-01T09:30:08.249Z,42.70
2022-09-01T09:33:24.976Z,42.90
2022-09-01T09:35:41.838Z,42.50
2022-09-01T09:38:33.584Z,41.70
2022-09-01T09:41:17.025Z,42.20
2022-09-01T09:43:59.194Z,41.60
2022-09-01T09:46:37.548Z,41.10
2022-09-01T09:49:34.967Z,41.40
2022-09-01T09:52:16.400Z,41.60
2022-09-01T09:55:22.283Z,41.30
2022-09-01T09:57:51.398Z,42.00
2022-09-01T10:00:29.249Z,41.80
2022-09-01T10:03:08.664Z,42.10
2022-09-01T10:05:43.295Z,41.90
2022-09-01T10:08:44.810Z,42.10
2022-09-01T10:11:31.301Z,42.90
2022-09-01T10:14:11.020Z,42.60
2022-09-01T10:16:42.762Z,42.60
2022-09-01T10:19:16.304Z,42.80
2022-09-01T10:21:46.085Z,42.80
2022-09-01T10:24:31.643Z,43.20
2022-09-01T10:27:05.223Z,42.90
2022-09-01T10:29:50.302Z,43.20
2022-09-01T10:32:36.925Z,42.40
2022-09-01T10:35:07.255Z,42.60
2022-09-01T10:37:41.387Z,42.30
2022-09-01T10:40:31.078Z,42.10
2022-09-01T10:43:37.832Z,42.20
2022-09-01T10:46:38.757Z,43.70
2022-09-01T10:49:28.074Z,42.50
2022-09-01T10:52:03.181Z,41.90
2022-09-01T10:54:51.104Z,41.20
2022-09-01T10:57:19.020Z,41.40
2022-09-01T10:59:56.397Z,42.20
2022-09-01T11:02:29.529Z,41.10
2022-09-01T11:05:02.585Z,41.20
2022-09-01T11:10:42.437Z,41.40
2022-09-01T11:13:29.321Z,41.70
2022-09-01T11:19:22.676Z,41.60
2022-09-01T11:22:15.716Z,41.70
2022-09-01T11:24:44.130Z,41.90
2022-09-01T11:27:32.785Z,41.50
2022-09-01T11:30:08.122Z,40.70
2022-09-01T11:32:38.524Z,40.00
2022-09-01T11:35:18.249Z,40.60
2022-09-01T11:37:56.123Z,41.50
2022-09-01T11:40:29.737Z,41.30
2022-09-01T11:43:12.426Z,40.10
2022-09-01T11:46:07.948Z,40.00
2022-09-01T11:48:36.596Z,40.00
2022-09-01T11:51:04.709Z,39.40
2022-09-01T11:53:32.616Z,39.30
2022-09-01T11:56:24.586Z,39.30
2022-09-01T11:58:52.290Z,39.20
2022-09-01T12:01:36.280Z,39.10
2022-09-01T12:04:19.222Z,39.20
2022-09-01T12:06:53.205Z,40.10
2022-09-01T12:09:20.765Z,39.10
2022-09-01T12:11:48.897Z,39.00
2022-09-01T12:14:25.572Z,38.80
2022-09-01T12:17:01.192Z,39.10
2022-09-01T12:19:34.883Z,39.40
2022-09-01T12:22:15.374Z,39.20
2022-09-01T12:24:56.329Z,38.70
2022-09-01T12:27:30.253Z,38.50
2022-09-01T12:30:02.243Z,38.50
2022-09-01T12:32:29.609Z,38.30
2022-09-01T12:35:09.205Z,38.10
2022-09-01T12:37:38.877Z,38.50
2022-09-01T12:40:20.907Z,38.00
2022-09-01T12:42:53.149Z,38.20
2022-09-01T12:45:41.073Z,37.90
2022-09-01T12:48:33.440Z,38.20
2022-09-01T12:51:26.605Z,37.70
2022-09-01T12:54:04.584Z,37.60
2022-09-01T12:56:39.202Z,37.60
2022-09-01T12:59:26.184Z,37.80
2022-09-01T13:02:26.784Z,37.90
2022-09-01T13:04:54.445Z,38.10
2022-09-01T13:07:21.764Z,37.70
2022-09-01T13:09:52.548Z,38.00
2022-09-01T13:12:28.075Z,37.20
2022-09-01T13:14:55.454Z,37.20
2022-09-01T13:17:23.966Z,37.50
2022-09-01T13:19:51.539Z,37.70
2022-09-01T13:22:18.966Z,37.50
2022-09-01T13:24:48.004Z,37.90
2022-09-01T13:27:23.003Z,37.80
2022-09-01T13:29:51.282Z,37.30
2022-09-01T13:32:20.822Z,36.80
2022-09-01T13:34:52.366Z,36.80
2022-09-01T13:37:21.686Z,36.80
2022-09-01T13:39:49.647Z,36.90
2022-09-01T13:42:17.537Z,36.80
2022-09-01T13:44:48.269Z,36.60
2022-09-01T13:47:30.219Z,37.10
2022-09-01T13:50:09.931Z,37.20
2022-09-01T13:52:40.074Z,36.60
2022-09-01T13:55:10.446Z,36.50
2022-09-01T13:57:38.417Z,36.30
2022-09-01T14:00:10.712Z,35.60
2022-09-01T14:02:41.038Z,35.80
2022-09-01T14:05:09.209Z,35.60
2022-09-01T14:07:37.431Z,36.30
2022-09-01T14:10:05.965Z,35.50
2022-09-01T14:12:33.973Z,35.40
2022-09-01T14:15:18.604Z,35.20
2022-09-01T14:17:52.129Z,35.30
2022-09-01T14:20:24.961Z,35.50
2022-09-01T14:23:04.813Z,35.00
2022-09-01T14:25:37.607Z,35.20
2022-09-01T14:28:05.253Z,35.00
2022-09-01T14:30:34.013Z,35.30
2022-09-01T14:33:02.619Z,34.70
2022-09-01T14:35:33.116Z,35.20
2022-09-01T14:38:02.639Z,35.10
2022-09-01T14:40:30.132Z,35.30
2022-09-01T14:42:57.697Z,35.10
2022-09-01T14:45:28.713Z,34.50
2022-09-01T14:47:58.703Z,34.50
2022-09-01T14:50:26.969Z,34.30
2022-09-01T14:52:56.587Z,34.30
2022-09-01T14:55:26.599Z,34.40
2022-09-01T14:57:54.992Z,34.60
2022-09-01T15:00:25.076Z,34.20
2022-09-01T15:02:54.334Z,34.80
2022-09-01T15:05:39.090Z,34.10
2022-09-01T15:08:12.980Z,33.70
2022-09-01T15:10:43.507Z,34.00
2022-09-01T15:13:11.206Z,34.10
2022-09-01T15:15:38.886Z,34.10
2022-09-01T15:18:06.617Z,34.70
2022-09-01T15:20:47.470Z,34.80
2022-09-01T15:23:19.204Z,34.10
2022-09-01T15:25:48.051Z,34.10
2022-09-01T15:28:15.744Z,33.60
2022-09-01T15:30:45.532Z,33.80
2022-09-01T15:33:15.932Z,33.50
2022-09-01T15:35:45.787Z,33.20
2022-09-01T15:38:17.350Z,33.10
2022-09-01T15:40:57.124Z,33.20
2022-09-01T15:43:27.339Z,32.90
2022-09-01T15:45:58.023Z,32.90
2022-09-01T15:48:27.248Z,32.60
2022-09-01T15:51:19.877Z,32.60
2022-09-01T15:53:47.867Z,32.70
2022-09-01T15:56:18.110Z,32.70
2022-09-01T15:59:01.103Z,32.90
2022-09-01T16:01:33.102Z,32.70
2022-09-01T16:04:01.356Z,33.00
2022-09-01T16:06:29.841Z,32.70
2022-09-01T16:08:57.899Z,32.60
2022-09-01T16:11:26.097Z,32.40
2022-09-01T16:13:54.165Z,32.40
2022-09-01T16:16:44.687Z,32.50
2022-09-01T16:19:39.248Z,33.10
2022-09-01T16:22:29.353Z,32.90
2022-09-01T16:25:00.765Z,32.80
2022-09-01T16:27:38.777Z,32.60
2022-09-01T16:30:12.791Z,32.60
2022-09-01T16:32:54.741Z,32.60
2022-09-01T16:36:06.866Z,32.60
2022-09-01T16:38:43.853Z,32.60
2022-09-01T16:41:11.226Z,32.70
2022-09-01T16:44:16.626Z,32.80
2022-09-01T16:46:47.801Z,32.80
2022-09-01T16:49:34.503Z,32.70
2022-09-01T16:52:18.741Z,32.60
2022-09-01T16:55:01.390Z,32.60
2022-09-01T16:57:48.318Z,32.40
2022-09-01T17:00:19.086Z,32.50
2022-09-01T17:02:59.683Z,32.30
2022-09-01T17:05:32.485Z,32.60
2022-09-01T17:08:12.505Z,32.60
2022-09-01T17:11:09.631Z,33.10
2022-09-01T17:13:44.838Z,33.20
2022-09-01T17:16:28.964Z,33.30
2022-09-01T17:18:59.911Z,33.40
2022-09-01T17:21:36.882Z,33.50
2022-09-01T17:24:13.598Z,33.50
2022-09-01T17:26:41.737Z,33.40
2022-09-01T17:29:24.349Z,33.90
2022-09-01T17:32:13.922Z,34.20
2022-09-01T17:34:52.080Z,33.80
2022-09-01T17:37:51.631Z,33.90
2022-09-01T17:40:26.544Z,34.20
2022-09-01T17:43:04.893Z,34.10
2022-09-01T17:45:51.306Z,34.20
2022-09-01T17:48:37.573Z,34.30
2022-09-01T17:51:22.358Z,34.10
2022-09-01T17:54:16.874Z,34.30
2022-09-01T17:57:09.207Z,34.40
2022-09-01T18:00:04.656Z,34.10
2022-09-01T18:02:46.496Z,34.10
2022-09-01T18:05:24.591Z,34.10
2022-09-01T18:08:00.209Z,34.40
2022-09-01T18:10:54.702Z,34.40
2022-09-01T18:13:52.344Z,34.40
2022-09-01T18:16:30.546Z,34.60
2022-09-01T18:19:05.514Z,34.50
2022-09-01T18:21:38.080Z,34.90
2022-09-01T18:24:16.046Z,35.00
2022-09-01T18:26:49.377Z,34.80
2022-09-01T18:29:17.718Z,34.90
2022-09-01T18:31:55.411Z,34.90
2022-09-01T18:34:32.201Z,35.10
2022-09-01T18:37:18.290Z,35.30
2022-09-01T18:40:07.220Z,35.20
2022-09-01T18:43:23.162Z,35.20
2022-09-01T18:46:07.642Z,35.30
2022-09-01T18:49:01.045Z,35.50
2022-09-01T18:51:40.727Z,35.60
2022-09-01T18:54:19.860Z,35.70
2022-09-01T18:56:56.821Z,35.80
2022-09-01T18:59:44.059Z,36.10
2022-09-01T19:02:37.059Z,36.40
2022-09-01T19:05:25.130Z,36.70
2022-09-01T19:08:07.299Z,36.70
2022-09-01T19:11:08.814Z,36.60
2022-09-01T19:13:59.424Z,36.70
2022-09-01T19:16:39.449Z,36.80
2022-09-01T19:19:41.040Z,37.20
2022-09-01T19:22:18.584Z,37.20
2022-09-01T19:24:53.522Z,37.40
2022-09-01T19:27:28.504Z,37.90
2022-09-01T19:30:02.029Z,37.50
2022-09-01T19:32:31.549Z,37.80
2022-09-01T19:35:06.304Z,37.70
2022-09-01T19:37:33.811Z,37.60
2022-09-01T19:40:01.486Z,38.00
2022-09-01T19:42:38.074Z,37.90
2022-09-01T19:45:13.186Z,38.10
2022-09-01T19:47:55.982Z,38.40
2022-09-01T19:50:33.889Z,38.60
2022-09-01T19:53:26.541Z,38.40
2022-09-01T19:55:56.884Z,38.50
2022-09-01T19:58:31.095Z,38.80
2022-09-01T20:01:02.071Z,38.60
2022-09-01T20:03:33.824Z,38.50
2022-09-01T20:06:09.950Z,39.30
2022-09-01T20:08:48.030Z,39.70
2022-09-01T20:11:22.329Z,39.60
2022-09-01T20:14:08.714Z,39.80
2022-09-01T20:16:36.459Z,39.70
2022-09-01T20:19:27.576Z,39.60
2022-09-01T20:21:58.597Z,39.70
2022-09-01T20:24:34.509Z,39.80
2022-09-01T20:27:15.693Z,40.00
2022-09-01T20:30:01.426Z,40.60
2022-09-01T20:32:40.824Z,40.00
2022-09-01T20:35:16.400Z,40.10
2022-09-01T20:37:49.316Z,40.10
2022-09-01T20:40:35.643Z,40.60
2022-09-01T20:43:15.676Z,40.00
2022-09-01T20:45:43.129Z,40.00
2022-09-01T20:48:14.473Z,40.00
2022-09-01T20:51:07.698Z,40.30
2022-09-01T20:53:56.301Z,40.40
2022-09-01T20:56:40.368Z,40.40
2022-09-01T20:59:27.705Z,40.50
2022-09-01T21:02:22.268Z,40.50
2022-09-01T21:05:19.674Z,40.50
2022-09-01T21:08:00.770Z,40.70
2022-09-01T21:10:56.491Z,40.70
2022-09-01T21:13:26.805Z,40.70
2022-09-01T21:16:12.503Z,40.80
2022-09-01T21:18:47.215Z,40.70
2022-09-01T21:21:35.880Z,40.80
2022-09-01T21:24:04.910Z,41.00
2022-09-01T21:26:37.580Z,41.00
2022-09-01T21:29:31.806Z,41.40
2022-09-01T21:31:59.589Z,41.10
2022-09-01T21:34:26.925Z,40.90
2022-09-01T21:36:55.426Z,41.40
2022-09-01T21:39:23.026Z,41.10
2022-09-01T21:41:50.655Z,41.20
2022-09-01T21:44:18.110Z,41.40
2022-09-01T21:46:45.526Z,41.30
2022-09-01T21:49:14.181Z,41.40
2022-09-01T21:51:42.300Z,42.00
2022-09-01T21:54:10.226Z,41.50
2022-09-01T21:56:37.809Z,41.60
2022-09-01T21:59:05.559Z,42.10
2022-09-01T22:01:35.530Z,42.30
2022-09-01T22:04:04.544Z,41.90
2022-09-01T22:06:33.647Z,42.40
2022-09-01T22:09:01.739Z,42.40
2022-09-01T22:11:30.378Z,42.20
2022-09-01T22:14:00.021Z,42.40
2022-09-01T22:16:27.860Z,42.30
2022-09-01T22:18:55.600Z,42.60
2022-09-01T22:21:24.631Z,42.70
2022-09-01T22:23:52.241Z,42.60
2022-09-01T22:26:26.238Z,43.00
2022-09-01T22:29:00.490Z,43.20
2022-09-01T22:31:30.210Z,43.10
2022-09-01T22:33:58.846Z,43.30
2022-09-01T22:36:33.355Z,43.00
2022-09-01T22:39:01.378Z,43.60
2022-09-01T22:41:30.714Z,43.10
2022-09-01T22:43:59.960Z,43.40
2022-09-01T22:46:28.434Z,43.30
2022-09-01T22:48:57.495Z,43.30
2022-09-01T22:51:25.107Z,43.60
2022-09-01T22:53:54.354Z,43.70
2022-09-01T22:56:31.209Z,43.60
2022-09-01T22:59:02.471Z,43.80
2022-09-01T23:01:33.330Z,44.30
2022-09-01T23:04:04.475Z,43.90
2022-09-01T23:06:33.774Z,43.90
2022-09-01T23:09:02.467Z,44.10
2022-09-01T23:11:29.877Z,44.10
2022-09-01T23:13:57.922Z,44.20
2022-09-01T23:16:27.066Z,44.10
2022-09-01T23:18:57.334Z,45.00
2022-09-01T23:21:28.182Z,44.30
2022-09-01T23:23:58.546Z,44.30
2022-09-01T23:26:28.697Z,44.30
2022-09-01T23:28:56.890Z,44.50
2022-09-01T23:31:28.247Z,44.90
2022-09-01T23:33:56.194Z,44.80
2022-09-01T23:36:25.850Z,44.90
2022-09-01T23:38:54.137Z,44.80
2022-09-01T23:41:31.148Z,44.60
2022-09-01T23:44:01.398Z,44.70
2022-09-01T23:46:32.991Z,44.60
2022-09-01T23:49:02.083Z,44.70
2022-09-01T23:51:30.141Z,45.10
2022-09-01T23:53:57.849Z,44.80
2022-09-01T23:56:27.846Z,45.00
2022-09-01T23:58:55.658Z,44.90
